createdAt,value
2019-03-21T00:00:18.465Z,2.10
2019-03-21T00:02:04.606Z,2.10
2019-03-21T00:03:40.905Z,2.10
2019-03-21T00:05:19.314Z,2.10
2019-03-21T00:06:55.751Z,2.10
2019-03-21T00:08:32.152Z,2.10
2019-03-21T00:10:34.392Z,2.10
2019-03-21T00:12:11.913Z,2.10
2019-03-21T00:13:48.146Z,2.20
2019-03-21T00:15:40.995Z,2.20
2019-03-21T00:17:43.704Z,2.20
2019-03-21T00:19:19.774Z,2.20
2019-03-21T00:20:56.070Z,2.20
2019-03-21T00:22:33.503Z,2.20
2019-03-21T00:24:10.787Z,2.20
2019-03-21T00:25:46.878Z,2.30
2019-03-21T00:27:23.136Z,2.30
2019-03-21T00:28:59.303Z,2.30
2019-03-21T00:30:35.297Z,2.30
2019-03-21T00:32:11.505Z,2.30
2019-03-21T00:33:48.012Z,2.30
2019-03-21T00:35:24.412Z,2.40
2019-03-21T00:37:00.686Z,2.40
2019-03-21T00:38:36.748Z,2.50
2019-03-21T00:40:26.447Z,2.40
2019-03-21T00:42:02.841Z,2.40
2019-03-21T00:43:38.926Z,2.40
2019-03-21T00:45:17.461Z,2.40
2019-03-21T00:46:53.555Z,2.40
2019-03-21T00:48:29.724Z,2.40
2019-03-21T00:50:13.382Z,2.40
2019-03-21T00:51:49.384Z,2.40
2019-03-21T00:53:25.446Z,2.40
2019-03-21T00:55:01.622Z,2.30
2019-03-21T00:56:37.681Z,2.30
2019-03-21T00:58:13.818Z,2.30
2019-03-21T00:59:50.124Z,2.20
2019-03-21T01:01:26.431Z,2.20
2019-03-21T01:03:04.231Z,2.20
2019-03-21T01:04:40.362Z,2.20
2019-03-21T01:06:16.525Z,2.20
2019-03-21T01:07:52.579Z,2.20
2019-03-21T01:09:28.719Z,2.10
2019-03-21T01:11:04.927Z,2.10
2019-03-21T01:12:40.985Z,2.10
2019-03-21T01:14:17.048Z,2.00
2019-03-21T01:15:53.234Z,2.10
2019-03-21T01:17:29.329Z,2.00
2019-03-21T01:19:05.636Z,2.00
2019-03-21T01:20:41.861Z,2.00
2019-03-21T01:22:17.863Z,2.00
2019-03-21T01:23:54.087Z,2.00
2019-03-21T01:25:44.101Z,1.90
2019-03-21T01:27:20.258Z,1.90
2019-03-21T01:28:56.351Z,1.90
2019-03-21T01:30:32.522Z,1.90
2019-03-21T01:32:08.520Z,1.90
2019-03-21T01:33:44.767Z,1.90
2019-03-21T01:35:20.934Z,1.90
2019-03-21T01:36:57.100Z,1.90
2019-03-21T01:38:33.183Z,1.90
2019-03-21T01:40:16.613Z,1.90
2019-03-21T01:41:52.747Z,2.00
2019-03-21T01:43:28.806Z,2.00
2019-03-21T01:45:11.052Z,2.00
2019-03-21T01:46:47.300Z,2.00
2019-03-21T01:48:23.431Z,2.00
2019-03-21T01:49:59.428Z,2.00
2019-03-21T01:51:35.530Z,2.00
2019-03-21T01:53:11.771Z,2.00
2019-03-21T01:54:47.958Z,2.10
2019-03-21T01:56:24.492Z,2.10
2019-03-21T01:58:00.549Z,2.10
2019-03-21T01:59:36.879Z,2.10
2019-03-21T02:01:12.946Z,2.10
2019-03-21T02:02:51.449Z,2.00
2019-03-21T02:04:27.582Z,2.10
2019-03-21T02:06:03.864Z,2.10
2019-03-21T02:07:40.190Z,2.10
2019-03-21T02:09:16.431Z,2.10
2019-03-21T02:10:52.732Z,2.10
2019-03-21T02:12:29.049Z,2.10
2019-03-21T02:14:05.366Z,2.10
2019-03-21T02:15:41.678Z,2.20
2019-03-21T02:17:17.941Z,2.20
2019-03-21T02:18:54.104Z,2.20
2019-03-21T02:20:30.445Z,2.30
2019-03-21T02:22:06.681Z,2.30
2019-03-21T02:23:42.755Z,2.40
2019-03-21T02:25:31.333Z,2.40
2019-03-21T02:27:07.430Z,2.40
2019-03-21T02:28:43.661Z,2.40
2019-03-21T02:30:29.655Z,2.40
2019-03-21T02:32:05.858Z,2.50
2019-03-21T02:33:45.174Z,2.50
2019-03-21T02:35:22.448Z,2.50
2019-03-21T02:36:58.610Z,2.50
2019-03-21T02:38:34.598Z,2.60
2019-03-21T02:40:18.384Z,2.60
2019-03-21T02:41:55.753Z,2.60
2019-03-21T02:43:32.042Z,2.60
2019-03-21T02:45:12.657Z,2.60
2019-03-21T02:46:48.858Z,2.70
2019-03-21T02:48:24.909Z,2.70
2019-03-21T02:50:02.295Z,2.70
2019-03-21T02:51:38.490Z,2.70
2019-03-21T02:53:14.647Z,2.70
2019-03-21T02:54:50.719Z,2.80
2019-03-21T02:56:27.730Z,2.80
2019-03-21T02:58:04.041Z,2.80
2019-03-21T02:59:40.140Z,2.80
2019-03-21T03:01:16.435Z,2.80
2019-03-21T03:02:55.371Z,2.90
2019-03-21T03:04:31.436Z,2.90
2019-03-21T03:06:07.799Z,2.90
2019-03-21T03:07:43.865Z,2.90
2019-03-21T03:09:20.130Z,2.90
2019-03-21T03:11:12.535Z,2.90
2019-03-21T03:12:48.665Z,2.90
2019-03-21T03:14:25.004Z,3.00
2019-03-21T03:16:01.257Z,3.00
2019-03-21T03:17:37.551Z,3.00
2019-03-21T03:19:13.683Z,3.00
2019-03-21T03:20:49.855Z,3.00
2019-03-21T03:22:25.956Z,3.00
2019-03-21T03:24:01.954Z,3.10
2019-03-21T03:25:38.105Z,3.10
2019-03-21T03:27:14.271Z,3.10
2019-03-21T03:28:50.264Z,3.10
2019-03-21T03:30:27.669Z,3.10
2019-03-21T03:32:03.877Z,3.10
2019-03-21T03:33:40.042Z,3.10
2019-03-21T03:35:16.272Z,3.20
2019-03-21T03:36:52.265Z,3.20
2019-03-21T03:38:28.440Z,3.20
2019-03-21T03:40:07.903Z,3.20
2019-03-21T03:41:44.042Z,3.20
2019-03-21T03:43:20.277Z,3.20
2019-03-21T03:44:56.369Z,3.20
2019-03-21T03:46:32.563Z,3.20
2019-03-21T03:48:08.867Z,3.20
2019-03-21T03:49:45.058Z,3.30
2019-03-21T03:51:21.220Z,3.30
2019-03-21T03:52:57.644Z,3.30
2019-03-21T03:54:36.215Z,3.20
2019-03-21T03:56:12.509Z,3.30
2019-03-21T03:57:58.970Z,3.30
2019-03-21T03:59:35.168Z,3.30
2019-03-21T04:01:11.471Z,3.30
2019-03-21T04:02:50.551Z,3.30
2019-03-21T04:04:26.853Z,3.30
2019-03-21T04:06:03.256Z,3.30
2019-03-21T04:07:40.549Z,3.30
2019-03-21T04:09:16.706Z,3.30
2019-03-21T04:10:54.804Z,3.30
2019-03-21T04:12:31.014Z,3.30
2019-03-21T04:14:08.367Z,3.30
2019-03-21T04:15:52.714Z,3.30
2019-03-21T04:17:22.430Z,3.30
2019-03-21T04:18:58.614Z,3.40
2019-03-21T04:20:47.673Z,3.40
2019-03-21T04:22:23.838Z,3.40
2019-03-21T04:24:00.297Z,3.40
2019-03-21T04:25:40.966Z,3.40
2019-03-21T04:27:17.136Z,3.40
2019-03-21T04:28:53.072Z,3.50
2019-03-21T04:30:29.208Z,3.50
2019-03-21T04:32:05.469Z,3.50
2019-03-21T04:33:43.267Z,3.50
2019-03-21T04:35:19.571Z,3.50
2019-03-21T04:36:55.900Z,3.50
2019-03-21T04:38:32.127Z,3.50
2019-03-21T04:40:15.144Z,3.60
2019-03-21T04:41:51.241Z,3.60
2019-03-21T04:43:27.372Z,3.60
2019-03-21T04:45:04.705Z,3.60
2019-03-21T04:46:40.947Z,3.60
2019-03-21T04:48:17.182Z,3.60
2019-03-21T04:49:53.239Z,3.70
2019-03-21T04:51:30.598Z,3.70
2019-03-21T04:53:07.273Z,3.70
2019-03-21T04:54:43.366Z,3.70
2019-03-21T04:56:19.428Z,3.70
2019-03-21T04:57:55.795Z,3.70
2019-03-21T04:59:31.968Z,3.80
2019-03-21T05:01:08.048Z,3.80
2019-03-21T05:02:44.553Z,3.80
2019-03-21T05:04:20.725Z,3.80
2019-03-21T05:05:56.921Z,3.90
2019-03-21T05:07:33.016Z,3.90
2019-03-21T05:09:12.623Z,3.90
2019-03-21T05:10:48.787Z,3.90
2019-03-21T05:12:24.879Z,4.00
2019-03-21T05:14:00.882Z,4.00
2019-03-21T05:15:45.536Z,4.00
2019-03-21T05:17:21.619Z,4.00
2019-03-21T05:19:00.284Z,4.00
2019-03-21T05:20:36.448Z,4.00
2019-03-21T05:22:13.804Z,4.10
2019-03-21T05:23:49.902Z,4.10
2019-03-21T05:25:26.436Z,4.10
2019-03-21T05:27:02.599Z,4.10
2019-03-21T05:28:38.772Z,4.10
2019-03-21T05:30:34.513Z,4.20
2019-03-21T05:32:10.530Z,4.10
2019-03-21T05:33:46.663Z,4.10
2019-03-21T05:35:22.823Z,4.20
2019-03-21T05:36:58.889Z,4.20
2019-03-21T05:38:35.131Z,4.20
2019-03-21T05:40:17.646Z,4.20
2019-03-21T05:41:55.002Z,4.20
2019-03-21T05:43:44.827Z,4.20
2019-03-21T05:45:25.341Z,4.30
2019-03-21T05:47:01.434Z,4.30
2019-03-21T05:48:37.597Z,4.30
2019-03-21T05:50:17.408Z,4.30
2019-03-21T05:51:53.414Z,4.30
2019-03-21T05:53:29.592Z,4.30
2019-03-21T05:55:09.878Z,4.30
2019-03-21T05:56:46.937Z,4.30
2019-03-21T05:58:23.038Z,4.40
2019-03-21T05:59:59.197Z,4.40
2019-03-21T06:01:35.359Z,4.40
2019-03-21T06:03:21.238Z,4.40
2019-03-21T06:04:57.402Z,4.40
2019-03-21T06:06:44.126Z,4.40
2019-03-21T06:08:28.139Z,4.50
2019-03-21T06:10:10.534Z,4.50
2019-03-21T06:11:51.445Z,4.50
2019-03-21T06:13:27.534Z,4.50
2019-03-21T06:15:03.803Z,4.50
2019-03-21T06:16:41.166Z,4.50
2019-03-21T06:18:50.763Z,4.50
2019-03-21T06:20:31.373Z,4.50
2019-03-21T06:22:29.134Z,4.50
2019-03-21T06:24:32.253Z,4.60
2019-03-21T06:26:28.057Z,4.60
2019-03-21T06:28:04.116Z,4.60
2019-03-21T06:29:40.273Z,4.60
2019-03-21T06:31:16.468Z,4.60
2019-03-21T06:32:52.634Z,4.60
2019-03-21T06:34:28.727Z,4.60
2019-03-21T06:36:05.023Z,4.60
2019-03-21T06:37:41.189Z,4.70
2019-03-21T06:39:17.429Z,4.60
2019-03-21T06:40:53.499Z,4.70
2019-03-21T06:42:29.676Z,4.70
2019-03-21T06:44:05.919Z,4.70
2019-03-21T06:45:47.874Z,4.70
2019-03-21T06:47:19.930Z,4.70
2019-03-21T06:48:56.250Z,4.80
2019-03-21T06:50:32.357Z,4.80
2019-03-21T06:52:08.543Z,4.80
2019-03-21T06:53:44.612Z,4.80
2019-03-21T06:55:20.751Z,4.80
2019-03-21T06:56:56.909Z,4.80
2019-03-21T06:58:33.241Z,4.80
2019-03-21T07:00:11.939Z,4.90
2019-03-21T07:01:48.080Z,4.80
2019-03-21T07:03:24.180Z,4.90
2019-03-21T07:05:00.359Z,4.90
2019-03-21T07:06:36.509Z,4.90
2019-03-21T07:08:12.508Z,4.90
2019-03-21T07:09:48.748Z,4.90
2019-03-21T07:11:24.927Z,5.00
2019-03-21T07:13:01.156Z,5.00
2019-03-21T07:14:37.218Z,5.00
2019-03-21T07:16:13.627Z,5.00
2019-03-21T07:17:49.774Z,5.00
2019-03-21T07:19:25.846Z,5.00
2019-03-21T07:21:02.763Z,5.10
2019-03-21T07:22:39.072Z,5.10
2019-03-21T07:24:16.494Z,5.10
2019-03-21T07:25:52.818Z,5.10
2019-03-21T07:27:28.971Z,5.10
2019-03-21T07:29:04.912Z,5.10
2019-03-21T07:30:41.073Z,5.20
2019-03-21T07:32:17.170Z,5.20
2019-03-21T07:33:54.825Z,5.30
2019-03-21T07:35:31.011Z,5.30
2019-03-21T07:37:07.242Z,5.30
2019-03-21T07:38:43.376Z,5.40
2019-03-21T07:40:19.682Z,5.40
2019-03-21T07:41:56.023Z,5.40
2019-03-21T07:43:32.159Z,5.40
2019-03-21T07:45:11.929Z,5.50
2019-03-21T07:46:47.937Z,5.50
2019-03-21T07:48:24.115Z,5.50
2019-03-21T07:50:00.385Z,5.60
2019-03-21T07:51:36.515Z,5.70
2019-03-21T07:53:12.647Z,5.70
2019-03-21T07:54:50.002Z,5.70
2019-03-21T07:56:26.163Z,5.70
2019-03-21T07:58:02.328Z,5.80
2019-03-21T07:59:38.442Z,5.80
2019-03-21T08:01:14.646Z,5.90
2019-03-21T08:02:50.778Z,5.90
2019-03-21T08:04:27.012Z,6.00
2019-03-21T08:06:03.253Z,6.10
2019-03-21T08:07:39.483Z,6.10
2019-03-21T08:09:15.655Z,6.10
2019-03-21T08:10:51.815Z,6.10
2019-03-21T08:12:27.995Z,6.20
2019-03-21T08:14:04.400Z,6.20
2019-03-21T08:15:40.543Z,6.20
2019-03-21T08:17:16.762Z,6.30
2019-03-21T08:18:53.033Z,6.30
2019-03-21T08:20:29.330Z,6.40
2019-03-21T08:22:05.633Z,6.50
2019-03-21T08:23:41.793Z,6.50
2019-03-21T08:25:17.960Z,6.60
2019-03-21T08:26:54.086Z,6.60
2019-03-21T08:28:30.333Z,6.60
2019-03-21T08:30:34.661Z,6.70
2019-03-21T08:32:10.959Z,6.80
2019-03-21T08:33:47.555Z,6.80
2019-03-21T08:35:23.791Z,6.90
2019-03-21T08:37:00.031Z,7.00
2019-03-21T08:38:37.318Z,7.10
2019-03-21T08:40:13.920Z,7.00
2019-03-21T08:41:50.211Z,7.10
2019-03-21T08:43:26.276Z,7.10
2019-03-21T08:45:02.338Z,7.20
2019-03-21T08:46:38.573Z,7.20
2019-03-21T08:48:14.667Z,7.30
2019-03-21T08:49:50.754Z,7.50
2019-03-21T08:51:26.893Z,7.60
2019-03-21T08:53:15.083Z,7.70
2019-03-21T08:54:51.144Z,7.80
2019-03-21T08:56:27.479Z,7.90
2019-03-21T08:58:03.880Z,8.00
2019-03-21T08:59:39.943Z,8.00
2019-03-21T09:01:16.220Z,8.10
2019-03-21T09:02:52.418Z,8.20
2019-03-21T09:04:28.665Z,8.20
2019-03-21T09:06:06.903Z,8.20
2019-03-21T09:07:43.086Z,8.20
2019-03-21T09:09:19.223Z,8.20
2019-03-21T09:10:55.533Z,8.20
2019-03-21T09:12:31.521Z,8.10
2019-03-21T09:14:07.381Z,8.20
2019-03-21T09:15:43.537Z,8.20
2019-03-21T09:17:19.477Z,8.20
2019-03-21T09:18:55.821Z,8.20
2019-03-21T09:20:31.914Z,8.20
2019-03-21T09:22:08.150Z,8.20
2019-03-21T09:23:44.313Z,8.20
2019-03-21T09:25:20.363Z,8.20
2019-03-21T09:26:56.768Z,8.20
2019-03-21T09:28:32.872Z,8.20
2019-03-21T09:30:15.299Z,8.10
2019-03-21T09:31:51.503Z,8.10
2019-03-21T09:33:27.661Z,8.10
2019-03-21T09:35:04.883Z,8.10
2019-03-21T09:36:41.179Z,8.00
2019-03-21T09:38:17.279Z,8.00
2019-03-21T09:39:53.368Z,8.00
2019-03-21T09:41:29.503Z,7.90
2019-03-21T09:43:05.626Z,7.90
2019-03-21T09:44:41.787Z,7.90
2019-03-21T09:46:17.843Z,7.80
2019-03-21T09:47:54.004Z,7.80
2019-03-21T09:49:30.187Z,7.70
2019-03-21T09:51:06.366Z,7.70
2019-03-21T09:52:42.445Z,7.80
2019-03-21T09:54:18.576Z,7.80
2019-03-21T09:55:54.809Z,7.90
2019-03-21T09:57:30.900Z,7.90
2019-03-21T09:59:06.893Z,8.00
2019-03-21T10:00:43.046Z,8.10
2019-03-21T10:02:19.108Z,8.10
2019-03-21T10:03:55.248Z,8.20
2019-03-21T10:05:31.546Z,8.30
2019-03-21T10:07:07.749Z,8.40
2019-03-21T10:08:43.930Z,8.50
2019-03-21T10:10:36.674Z,8.60
2019-03-21T10:12:12.839Z,8.80
2019-03-21T10:13:49.017Z,8.90
2019-03-21T10:15:25.177Z,9.00
2019-03-21T10:17:01.346Z,9.10
2019-03-21T10:18:37.657Z,9.20
2019-03-21T10:20:13.806Z,9.20
2019-03-21T10:21:49.969Z,9.20
2019-03-21T10:23:26.302Z,9.30
2019-03-21T10:25:02.481Z,9.30
2019-03-21T10:26:38.590Z,9.40
2019-03-21T10:28:14.887Z,9.40
2019-03-21T10:29:51.004Z,9.50
2019-03-21T10:31:27.031Z,9.50
2019-03-21T10:33:04.737Z,9.50
2019-03-21T10:34:40.726Z,9.50
2019-03-21T10:36:16.882Z,9.60
2019-03-21T10:37:52.945Z,9.60
2019-03-21T10:39:29.103Z,9.70
2019-03-21T10:41:05.402Z,9.70
2019-03-21T10:42:41.569Z,9.70
2019-03-21T10:44:17.557Z,9.70
2019-03-21T10:45:54.915Z,9.80
2019-03-21T10:47:30.916Z,10.00
2019-03-21T10:49:07.048Z,10.00
2019-03-21T10:50:43.377Z,9.90
2019-03-21T10:52:19.687Z,10.00
2019-03-21T10:53:55.852Z,10.00
2019-03-21T10:55:32.155Z,10.00
2019-03-21T10:57:08.431Z,10.00
2019-03-21T10:58:44.740Z,10.10
2019-03-21T11:00:21.212Z,10.10
2019-03-21T11:02:06.816Z,10.10
2019-03-21T11:03:36.373Z,10.10
2019-03-21T11:05:12.723Z,10.20
2019-03-21T11:06:48.829Z,10.40
2019-03-21T11:08:25.076Z,10.60
2019-03-21T11:10:01.390Z,10.60
2019-03-21T11:11:37.529Z,10.60
2019-03-21T11:13:13.739Z,10.60
2019-03-21T11:14:49.911Z,10.60
2019-03-21T11:16:26.245Z,10.70
2019-03-21T11:18:02.651Z,10.80
2019-03-21T11:19:38.963Z,10.80
2019-03-21T11:21:15.213Z,10.80
2019-03-21T11:22:51.217Z,10.80
2019-03-21T11:24:27.386Z,10.80
2019-03-21T11:26:03.600Z,10.80
2019-03-21T11:27:39.774Z,10.90
2019-03-21T11:29:15.848Z,10.90
2019-03-21T11:30:51.986Z,11.00
2019-03-21T11:32:28.109Z,10.90
2019-03-21T11:34:04.412Z,10.90
2019-03-21T11:35:40.630Z,10.90
2019-03-21T11:37:16.940Z,10.90
2019-03-21T11:38:53.070Z,10.80
2019-03-21T11:40:29.580Z,10.70
2019-03-21T11:42:05.887Z,10.70
2019-03-21T11:43:42.164Z,10.70
2019-03-21T11:45:18.405Z,10.70
2019-03-21T11:46:54.727Z,10.90
2019-03-21T11:48:30.978Z,10.90
2019-03-21T11:50:08.605Z,10.90
2019-03-21T11:51:44.768Z,11.00
2019-03-21T11:53:21.002Z,11.00
2019-03-21T11:54:57.072Z,10.90
2019-03-21T11:56:33.313Z,11.00
2019-03-21T11:58:09.482Z,11.00
2019-03-21T11:59:51.665Z,11.00
2019-03-21T12:01:25.873Z,11.00
2019-03-21T12:03:04.101Z,11.10
2019-03-21T12:04:39.608Z,11.10
2019-03-21T12:06:15.778Z,11.10
2019-03-21T12:07:52.016Z,11.00
2019-03-21T12:09:28.686Z,10.90
2019-03-21T12:11:05.009Z,10.90
2019-03-21T12:12:41.253Z,11.00
2019-03-21T12:14:18.667Z,11.10
2019-03-21T12:15:54.773Z,11.10
2019-03-21T12:17:30.946Z,11.10
2019-03-21T12:19:07.014Z,11.10
2019-03-21T12:20:43.255Z,11.10
2019-03-21T12:22:29.513Z,11.10
2019-03-21T12:23:57.128Z,11.20
2019-03-21T12:25:33.371Z,11.30
2019-03-21T12:27:09.553Z,11.30
2019-03-21T12:28:45.710Z,11.40
2019-03-21T12:30:39.162Z,11.60
2019-03-21T12:32:15.298Z,11.80
2019-03-21T12:33:51.547Z,12.00
2019-03-21T12:35:27.654Z,12.10
2019-03-21T12:37:03.892Z,12.20
2019-03-21T12:38:39.963Z,12.30
2019-03-21T12:40:16.275Z,12.30
2019-03-21T12:41:52.435Z,12.30
2019-03-21T12:43:28.605Z,12.20
2019-03-21T12:45:10.366Z,12.10
2019-03-21T12:46:46.363Z,12.00
2019-03-21T12:48:22.536Z,11.90
2019-03-21T12:49:58.698Z,11.80
2019-03-21T12:51:35.011Z,11.60
2019-03-21T12:53:11.317Z,11.60
2019-03-21T12:54:47.496Z,11.50
2019-03-21T12:56:23.597Z,11.40
2019-03-21T12:57:59.708Z,11.40
2019-03-21T12:59:35.882Z,11.40
2019-03-21T13:01:12.064Z,11.30
2019-03-21T13:02:48.311Z,11.30
2019-03-21T13:04:24.386Z,11.20
2019-03-21T13:06:00.564Z,11.10
2019-03-21T13:07:36.777Z,11.10
2019-03-21T13:09:13.073Z,11.00
2019-03-21T13:10:49.369Z,10.90
2019-03-21T13:12:25.675Z,10.80
2019-03-21T13:14:01.756Z,10.80
2019-03-21T13:15:38.062Z,10.80
2019-03-21T13:17:14.309Z,10.70
2019-03-21T13:18:50.449Z,10.60
2019-03-21T13:20:26.531Z,10.60
2019-03-21T13:22:02.775Z,10.60
2019-03-21T13:23:38.772Z,10.50
2019-03-21T13:25:15.080Z,10.40
2019-03-21T13:26:51.216Z,10.40
2019-03-21T13:28:27.353Z,10.40
2019-03-21T13:30:04.995Z,10.30
2019-03-21T13:31:41.160Z,10.30
2019-03-21T13:33:18.532Z,10.30
2019-03-21T13:34:54.726Z,10.20
2019-03-21T13:36:30.962Z,10.20
2019-03-21T13:38:07.369Z,10.20
2019-03-21T13:39:43.495Z,10.20
2019-03-21T13:41:19.726Z,10.20
2019-03-21T13:42:55.800Z,10.20
2019-03-21T13:44:32.023Z,10.20
2019-03-21T13:46:08.162Z,10.20
2019-03-21T13:47:44.499Z,10.10
2019-03-21T13:49:20.501Z,10.00
2019-03-21T13:50:56.606Z,10.00
2019-03-21T13:52:32.768Z,10.00
2019-03-21T13:54:09.064Z,9.90
2019-03-21T13:55:45.209Z,9.90
2019-03-21T13:57:21.470Z,9.80
2019-03-21T13:58:57.779Z,9.80
2019-03-21T14:00:34.034Z,9.70
2019-03-21T14:02:10.105Z,9.70
2019-03-21T14:03:46.339Z,9.70
2019-03-21T14:05:22.639Z,9.70
2019-03-21T14:06:58.787Z,9.70
2019-03-21T14:08:35.067Z,9.60
2019-03-21T14:10:14.251Z,9.60
2019-03-21T14:11:50.419Z,9.60
2019-03-21T14:13:26.585Z,9.70
2019-03-21T14:15:02.821Z,9.70
2019-03-21T14:16:39.042Z,9.70
2019-03-21T14:18:15.079Z,9.70
2019-03-21T14:19:52.455Z,9.80
2019-03-21T14:21:28.454Z,9.80
2019-03-21T14:23:16.081Z,9.80
2019-03-21T14:24:42.329Z,9.80
2019-03-21T14:26:18.492Z,9.70
2019-03-21T14:27:54.658Z,9.70
2019-03-21T14:29:30.811Z,9.70
2019-03-21T14:31:07.131Z,9.60
2019-03-21T14:32:44.258Z,9.60
2019-03-21T14:34:20.385Z,9.60
2019-03-21T14:35:56.840Z,9.60
2019-03-21T14:37:32.971Z,9.60
2019-03-21T14:39:09.389Z,9.50
2019-03-21T14:40:45.512Z,9.50
2019-03-21T14:42:21.586Z,9.50
2019-03-21T14:43:57.842Z,9.40
2019-03-21T14:45:34.081Z,9.40
2019-03-21T14:47:11.451Z,9.40
2019-03-21T14:48:47.587Z,9.40
2019-03-21T14:50:23.907Z,9.40
2019-03-21T14:52:00.166Z,9.50
2019-03-21T14:53:38.134Z,9.50
2019-03-21T14:55:15.738Z,9.50
2019-03-21T14:56:51.876Z,9.60
2019-03-21T14:58:27.944Z,9.60
2019-03-21T15:00:06.944Z,9.70
2019-03-21T15:01:43.108Z,9.70
2019-03-21T15:03:19.360Z,9.80
2019-03-21T15:04:55.139Z,9.80
2019-03-21T15:06:31.330Z,9.80
2019-03-21T15:08:07.451Z,9.90
2019-03-21T15:09:43.831Z,9.90
2019-03-21T15:11:20.010Z,10.00
2019-03-21T15:12:56.136Z,10.10
2019-03-21T15:14:32.299Z,10.10
2019-03-21T15:16:08.609Z,10.10
2019-03-21T15:17:44.905Z,10.20
2019-03-21T15:19:21.071Z,10.10
2019-03-21T15:20:57.249Z,10.10
2019-03-21T15:22:33.371Z,10.20
2019-03-21T15:24:09.615Z,10.20
2019-03-21T15:25:45.940Z,10.10
2019-03-21T15:27:22.191Z,10.10
2019-03-21T15:28:58.332Z,10.10
2019-03-21T15:30:34.495Z,10.00
2019-03-21T15:32:10.494Z,10.10
2019-03-21T15:33:46.761Z,10.00
2019-03-21T15:35:23.165Z,10.00
2019-03-21T15:36:59.158Z,10.00
2019-03-21T15:38:35.262Z,9.90
2019-03-21T15:40:14.071Z,9.80
2019-03-21T15:41:50.196Z,9.80
2019-03-21T15:43:26.256Z,9.80
2019-03-21T15:45:20.595Z,9.80
2019-03-21T15:46:40.414Z,9.80
2019-03-21T15:48:16.473Z,9.70
2019-03-21T15:49:52.393Z,9.70
2019-03-21T15:51:29.647Z,9.60
2019-03-21T15:53:08.043Z,9.60
2019-03-21T15:54:44.272Z,9.50
2019-03-21T15:56:20.422Z,9.50
2019-03-21T15:57:56.892Z,9.40
2019-03-21T15:59:32.978Z,9.40
2019-03-21T16:01:09.107Z,9.30
2019-03-21T16:05:13.352Z,9.30
2019-03-21T16:06:49.583Z,9.20
2019-03-21T16:08:27.217Z,9.10
2019-03-21T16:10:04.855Z,9.10
2019-03-21T16:11:41.084Z,9.10
2019-03-21T16:13:17.322Z,9.10
2019-03-21T16:14:53.417Z,9.00
2019-03-21T16:16:29.634Z,9.10
2019-03-21T16:18:06.037Z,9.00
2019-03-21T16:19:42.097Z,9.00
2019-03-21T16:21:18.171Z,9.00
2019-03-21T16:22:54.615Z,9.00
2019-03-21T16:24:30.781Z,8.90
2019-03-21T16:26:07.100Z,8.90
2019-03-21T16:27:43.171Z,8.90
2019-03-21T16:29:19.261Z,8.90
2019-03-21T16:30:55.329Z,8.90
2019-03-21T16:32:31.532Z,8.90
2019-03-21T16:34:07.595Z,8.90
2019-03-21T16:35:43.839Z,8.80
2019-03-21T16:37:19.964Z,8.80
2019-03-21T16:38:56.142Z,8.80
2019-03-21T16:40:32.378Z,8.70
2019-03-21T16:42:08.595Z,8.70
2019-03-21T16:43:44.669Z,8.60
2019-03-21T16:45:21.400Z,8.70
2019-03-21T16:46:57.734Z,8.60
2019-03-21T16:48:33.835Z,8.60
2019-03-21T16:50:13.009Z,8.60
2019-03-21T16:51:49.279Z,8.60
2019-03-21T16:53:25.428Z,8.60
2019-03-21T16:55:01.492Z,8.60
2019-03-21T16:56:37.619Z,8.60
2019-03-21T16:58:13.692Z,8.50
2019-03-21T16:59:49.790Z,8.50
2019-03-21T17:01:27.207Z,8.50
2019-03-21T17:03:03.308Z,8.50
2019-03-21T17:04:39.460Z,8.40
2019-03-21T17:06:15.672Z,8.40
2019-03-21T17:07:53.260Z,8.40
2019-03-21T17:09:29.460Z,8.40
2019-03-21T17:11:05.808Z,8.40
2019-03-21T17:12:42.281Z,8.40
2019-03-21T17:14:18.493Z,8.40
2019-03-21T17:15:54.716Z,8.40
2019-03-21T17:17:30.874Z,8.30
2019-03-21T17:19:07.193Z,8.30
2019-03-21T17:20:43.492Z,8.20
2019-03-21T17:22:19.561Z,8.20
2019-03-21T17:23:55.758Z,8.20
2019-03-21T17:25:32.003Z,8.20
2019-03-21T17:27:08.238Z,8.10
2019-03-21T17:28:44.395Z,8.10
2019-03-21T17:30:20.698Z,8.00
2019-03-21T17:31:57.608Z,8.00
2019-03-21T17:33:33.769Z,7.90
2019-03-21T17:35:10.175Z,7.90
2019-03-21T17:36:46.308Z,7.80
2019-03-21T17:38:22.407Z,7.70
2019-03-21T17:39:58.605Z,7.70
2019-03-21T17:41:34.898Z,7.60
2019-03-21T17:43:11.151Z,7.60
2019-03-21T17:44:47.388Z,7.50
2019-03-21T17:46:23.554Z,7.40
2019-03-21T17:47:59.758Z,7.30
2019-03-21T17:49:35.928Z,7.30
2019-03-21T17:51:12.166Z,7.30
2019-03-21T17:52:49.069Z,7.20
2019-03-21T17:54:25.476Z,7.20
2019-03-21T17:56:01.945Z,7.20
2019-03-21T17:57:38.182Z,7.10
2019-03-21T17:59:14.345Z,7.10
2019-03-21T18:00:50.659Z,7.00
2019-03-21T18:02:26.959Z,7.00
2019-03-21T18:04:03.102Z,7.00
2019-03-21T18:05:39.268Z,7.00
2019-03-21T18:07:15.603Z,6.90
2019-03-21T18:08:51.834Z,6.90
2019-03-21T18:10:34.224Z,6.90
2019-03-21T18:12:10.207Z,6.90
2019-03-21T18:13:46.451Z,6.90
2019-03-21T18:15:23.952Z,6.90
2019-03-21T18:17:00.284Z,6.90
2019-03-21T18:18:36.507Z,6.90
2019-03-21T18:20:12.811Z,6.90
2019-03-21T18:21:48.972Z,6.90
2019-03-21T18:23:25.175Z,6.90
2019-03-21T18:25:01.267Z,6.90
2019-03-21T18:26:37.401Z,6.90
2019-03-21T18:28:13.543Z,6.90
2019-03-21T18:29:49.681Z,6.90
2019-03-21T18:31:25.923Z,6.90
2019-03-21T18:33:02.058Z,6.90
2019-03-21T18:34:38.143Z,6.90
2019-03-21T18:36:14.284Z,6.90
2019-03-21T18:37:51.753Z,6.90
2019-03-21T18:39:27.921Z,6.90
2019-03-21T18:41:04.616Z,6.90
2019-03-21T18:42:40.741Z,6.80
2019-03-21T18:44:18.545Z,6.80
2019-03-21T18:45:54.983Z,6.70
2019-03-21T18:47:31.183Z,6.70
2019-03-21T18:49:07.416Z,6.70
2019-03-21T18:50:44.776Z,6.70
2019-03-21T18:52:21.027Z,6.60
2019-03-21T18:53:57.122Z,6.60
2019-03-21T18:55:33.281Z,6.50
2019-03-21T18:57:09.499Z,6.50
2019-03-21T18:58:46.787Z,6.50
2019-03-21T19:00:23.289Z,6.50
2019-03-21T19:01:59.694Z,6.50
2019-03-21T19:03:35.810Z,6.50
2019-03-21T19:05:12.289Z,6.50
2019-03-21T19:06:51.359Z,6.50
2019-03-21T19:08:27.495Z,6.50
2019-03-21T19:10:05.104Z,6.50
2019-03-21T19:11:41.167Z,6.50
2019-03-21T19:13:17.342Z,6.50
2019-03-21T19:14:53.640Z,6.50
2019-03-21T19:16:32.143Z,6.50
2019-03-21T19:18:08.392Z,6.50
2019-03-21T19:19:44.584Z,6.50
2019-03-21T19:21:20.826Z,6.50
2019-03-21T19:22:57.022Z,6.50
2019-03-21T19:24:33.237Z,6.50
2019-03-21T19:26:09.097Z,6.60
2019-03-21T19:27:45.337Z,6.60
2019-03-21T19:29:21.493Z,6.60
2019-03-21T19:30:57.560Z,6.60
2019-03-21T19:32:33.759Z,6.60
2019-03-21T19:34:09.969Z,6.70
2019-03-21T19:35:46.972Z,6.60
2019-03-21T19:37:23.176Z,6.70
2019-03-21T19:38:59.317Z,6.70
2019-03-21T19:40:35.593Z,6.70
2019-03-21T19:42:11.753Z,6.70
2019-03-21T19:43:47.481Z,6.70
2019-03-21T19:45:23.790Z,6.70
2019-03-21T19:47:01.465Z,6.80
2019-03-21T19:48:45.694Z,6.80
2019-03-21T19:50:20.546Z,6.80
2019-03-21T19:51:56.830Z,6.80
2019-03-21T19:53:33.068Z,6.80
2019-03-21T19:55:10.570Z,6.80
2019-03-21T19:56:46.651Z,6.80
2019-03-21T19:58:23.102Z,6.80
2019-03-21T20:00:05.002Z,6.90
2019-03-21T20:01:41.404Z,6.90
2019-03-21T20:03:18.764Z,6.80
2019-03-21T20:04:55.006Z,6.90
2019-03-21T20:06:31.403Z,6.80
2019-03-21T20:08:07.759Z,6.80
2019-03-21T20:09:44.038Z,6.90
2019-03-21T20:11:21.732Z,6.80
2019-03-21T20:12:57.845Z,6.90
2019-03-21T20:14:34.325Z,6.90
2019-03-21T20:16:10.563Z,6.90
2019-03-21T20:17:46.962Z,6.90
2019-03-21T20:19:24.345Z,6.90
2019-03-21T20:21:00.770Z,6.90
2019-03-21T20:22:37.168Z,6.90
2019-03-21T20:24:13.384Z,6.90
2019-03-21T20:25:49.802Z,6.90
2019-03-21T20:27:26.066Z,6.90
2019-03-21T20:29:02.201Z,6.90
2019-03-21T20:30:38.364Z,6.90
2019-03-21T20:32:20.419Z,6.90
2019-03-21T20:33:52.568Z,6.90
2019-03-21T20:35:29.921Z,6.90
2019-03-21T20:37:06.228Z,6.80
2019-03-21T20:38:42.478Z,6.80
2019-03-21T20:40:20.455Z,6.70
2019-03-21T20:41:56.701Z,6.60
2019-03-21T20:43:32.869Z,6.60
2019-03-21T20:45:12.739Z,6.60
2019-03-21T20:46:48.739Z,6.50
2019-03-21T20:48:29.177Z,6.40
2019-03-21T20:50:10.289Z,6.40
2019-03-21T20:51:46.446Z,6.30
2019-03-21T20:53:22.631Z,6.30
2019-03-21T20:54:58.687Z,6.30
2019-03-21T20:56:34.921Z,6.20
2019-03-21T20:58:11.089Z,6.20
2019-03-21T20:59:47.093Z,6.10
2019-03-21T21:01:23.396Z,6.10
2019-03-21T21:02:59.561Z,6.00
2019-03-21T21:04:35.873Z,6.00
2019-03-21T21:06:12.004Z,5.90
2019-03-21T21:07:47.900Z,5.90
2019-03-21T21:09:24.200Z,5.90
2019-03-21T21:11:00.547Z,5.80
2019-03-21T21:12:36.704Z,5.80
2019-03-21T21:14:12.949Z,5.80
2019-03-21T21:15:48.939Z,5.80
2019-03-21T21:17:25.178Z,5.70
2019-03-21T21:19:01.442Z,5.70
2019-03-21T21:20:37.537Z,5.60
2019-03-21T21:22:13.617Z,5.60
2019-03-21T21:23:49.841Z,5.50
2019-03-21T21:25:26.028Z,5.50
2019-03-21T21:27:02.263Z,5.50